Terminal Aerodrome Forecast
Issued by NWS Charleston, WV

Current Version | Previous Version | Graphics & Text | Print | Product List | Glossary On
Versions: 1 2 3 4 5 6 7 8 9 10 11 12 13 14 15 16 17 18 19 20 21 22 23 24
000
FTUS41 KRLX 080500
TAFEKN
TAF
KEKN 080530Z 0806/0906 01003KT P6SM FEW100
     FM080700 24008KT P6SM BKN035
     FM081700 22013G18KT P6SM VCTS BKN040CB
     FM081800 22013G19KT 6SM +SHRA BR VCTS BKN040CB
     FM090000 25009G14KT 5SM +SHRA BR VCTS BKN030CB
     FM090300 26008KT P6SM VCTS BKN030CB=

USA.gov is the U.S. government's official web portal to all federal, state and local government web resources and services.